Time;durP1;ratioP1;P1;durP2;ratioP2;P2;SDS_P1;SDS_P2;PMS_P1;PMS_P2;Temp;Humidity;BMP_temperature;BMP_pressure;BME280_temperature;BME280_humidity;BME280_pressure;Samples;Min_cycle;Max_cycle;Signal;HPM_P1;HPM_P2
2024/03/17 00:01:36;;;;;;;;;;;;;;;7.73;100.00;96681.42;108515;1275;125251;-84
2024/03/17 00:04:03;;;;;;;;;;;;;;;7.71;100.00;96682.39;108617;1278;22506;-84
2024/03/17 00:06:29;;;;;;;;;;;;;;;7.65;100.00;96685.40;108759;1272;22498;-84
2024/03/17 00:08:56;;;;;;;;;;;;;;;7.58;100.00;96693.71;108633;1268;124597;-84
2024/03/17 00:11:22;;;;;;;;;;;;;;;7.51;100.00;96695.11;108719;1272;23614;-84
2024/03/17 00:13:48;;;;;;;;;;;;;;;7.42;100.00;96702.69;108648;1280;124734;-84
2024/03/17 00:16:18;;;;;;;;;;;;;;;7.34;100.00;96710.58;108728;1272;22506;-84
2024/03/17 00:18:46;;;;;;;;;;;;;;;7.26;100.00;96721.43;108588;1275;22540;-84
2024/03/17 00:21:13;;;;;;;;;;;;;;;7.15;100.00;96725.40;108528;1273;124523;-83
2024/03/17 00:23:39;;;;;;;;;;;;;;;7.06;100.00;96728.00;108748;1272;22527;-84
2024/03/17 00:26:06;;;;;;;;;;;;;;;7.00;100.00;96735.33;109054;1280;124660;-84
2024/03/17 00:28:33;;;;;;;;;;;;;;;6.95;100.00;96732.52;110026;1275;22430;-85
2024/03/17 00:30:59;;;;;;;;;;;;;;;6.91;100.00;96737.45;109962;1278;22382;-85
2024/03/17 00:33:25;;;;;;;;;;;;;;;6.88;100.00;96737.02;108967;1278;124560;-84
2024/03/17 00:35:52;;;;;;;;;;;;;;;6.87;100.00;96740.62;108610;1280;25059;-84
2024/03/17 00:38:18;;;;;;;;;;;;;;;6.84;100.00;96741.70;108572;1275;124621;-84
2024/03/17 00:40:45;;;;;;;;;;;;;;;6.81;100.00;96746.33;108681;1275;23505;-87
2024/03/17 00:43:11;;;;;;;;;;;;;;;6.78;100.00;96750.80;108582;1272;124802;-87
2024/03/17 00:45:37;;;;;;;;;;;;;;;6.72;100.00;96757.55;108754;1280;22610;-88
2024/03/17 00:48:06;;;;;;;;;;;;;;;6.69;100.00;96768.04;108720;1278;22562;-87
2024/03/17 00:50:32;;;;;;;;;;;;;;;6.59;100.00;96771.85;108689;1280;124748;-87
2024/03/17 00:53:00;;;;;;;;;;;;;;;6.49;100.00;96778.88;108779;1272;22531;-87
2024/03/17 00:55:26;;;;;;;;;;;;;;;6.40;100.00;96783.48;108650;1280;125239;-84
2024/03/17 00:57:54;;;;;;;;;;;;;;;6.33;100.00;96785.02;108634;1275;23121;-84
2024/03/17 01:00:20;;;;;;;;;;;;;;;6.24;100.00;96793.30;108675;1280;22553;-84
2024/03/17 01:02:46;;;;;;;;;;;;;;;6.13;100.00;96800.91;108587;1280;124675;-84
2024/03/17 01:05:13;;;;;;;;;;;;;;;6.02;100.00;96803.79;108660;1280;23995;-84
2024/03/17 01:07:39;;;;;;;;;;;;;;;5.96;100.00;96810.38;108597;1280;125893;-84
2024/03/17 01:10:08;;;;;;;;;;;;;;;5.92;100.00;96810.75;108672;1280;22639;-84
2024/03/17 01:12:34;;;;;;;;;;;;;;;5.86;100.00;96806.33;108663;1280;23145;-84
2024/03/17 01:15:03;;;;;;;;;;;;;;;5.82;100.00;96807.88;108529;1280;126787;-84
2024/03/17 01:17:30;;;;;;;;;;;;;;;5.83;100.00;96806.56;108671;1280;24203;-84
2024/03/17 01:19:56;;;;;;;;;;;;;;;5.83;100.00;96807.63;108509;1280;124722;-85
2024/03/17 01:22:22;;;;;;;;;;;;;;;5.81;100.00;96810.33;108674;1275;22521;-84
2024/03/17 01:24:49;;;;;;;;;;;;;;;5.75;100.00;96814.18;108680;1275;23756;-85
2024/03/17 01:27:16;;;;;;;;;;;;;;;5.70;100.00;96815.69;108545;1274;124556;-84
2024/03/17 01:29:43;;;;;;;;;;;;;;;5.64;100.00;96816.38;108612;1275;25377;-84
2024/03/17 01:32:10;;;;;;;;;;;;;;;5.58;100.00;96814.89;108550;1280;124576;-84
2024/03/17 01:34:40;;;;;;;;;;;;;;;5.53;100.00;96815.90;108683;1275;22543;-84
2024/03/17 01:37:06;;;;;;;;;;;;;;;5.48;100.00;96822.69;108640;1279;125123;-84
2024/03/17 01:39:33;;;;;;;;;;;;;;;5.44;100.00;96825.28;108683;1262;22501;-84
2024/03/17 01:41:59;;;;;;;;;;;;;;;5.42;100.00;96829.41;108658;1278;22520;-84
2024/03/17 01:44:30;;;;;;;;;;;;;;;5.41;100.00;96829.98;108627;1280;125641;-84
2024/03/17 01:46:56;;;;;;;;;;;;;;;5.41;100.00;96833.77;108627;1280;22578;-84
2024/03/17 01:49:23;;;;;;;;;;;;;;;5.41;100.00;96832.06;108507;1280;124741;-84
2024/03/17 01:51:50;;;;;;;;;;;;;;;5.42;100.00;96834.18;108554;1281;22512;-84
2024/03/17 01:54:16;;;;;;;;;;;;;;;5.44;100.00;96837.64;108592;1273;22543;-85
2024/03/17 01:56:43;;;;;;;;;;;;;;;5.43;100.00;96840.98;108532;1275;124553;-87
2024/03/17 01:59:10;;;;;;;;;;;;;;;5.40;100.00;96844.69;108605;1278;22612;-88
2024/03/17 02:01:36;;;;;;;;;;;;;;;5.36;100.00;96849.64;108619;1274;124757;-88
2024/03/17 02:04:03;;;;;;;;;;;;;;;5.32;100.00;96851.42;108713;1280;23832;-87
2024/03/17 02:06:30;;;;;;;;;;;;;;;5.29;100.00;96853.98;108715;1280;24208;-88
2024/03/17 02:08:56;;;;;;;;;;;;;;;5.26;100.00;96854.23;108632;1274;124634;-88
2024/03/17 02:11:24;;;;;;;;;;;;;;;5.24;100.00;96854.72;108648;1280;22503;-88
2024/03/17 02:13:50;;;;;;;;;;;;;;;5.24;100.00;96855.94;108615;1273;125060;-88
2024/03/17 02:16:16;;;;;;;;;;;;;;;5.23;100.00;96856.02;108692;1275;22524;-87
2024/03/17 02:18:44;;;;;;;;;;;;;;;5.23;100.00;96858.27;108650;1280;22469;-88
2024/03/17 02:21:10;;;;;;;;;;;;;;;5.24;100.00;96852.50;108611;1270;124627;-88
2024/03/17 02:23:36;;;;;;;;;;;;;;;5.26;100.00;96851.08;108799;1279;23192;-88
2024/03/17 02:26:03;;;;;;;;;;;;;;;5.26;100.00;96854.20;108558;1280;125011;-87
2024/03/17 02:28:37;;;;;;;;;;;;;;;5.23;100.00;96850.39;110061;1273;22415;-88
2024/03/17 02:31:04;;;;;;;;;;;;;;;5.22;100.00;96853.02;110052;1275;23060;-88
2024/03/17 02:33:31;;;;;;;;;;;;;;;5.22;100.00;96852.14;109974;1275;22414;-88
2024/03/17 02:35:57;;;;;;;;;;;;;;;5.24;100.00;96855.98;108669;1280;22559;-87
2024/03/17 02:41:09;;;;;;;;;;;;;;;5.24;100.00;96857.13;108672;1280;22548;-88
2024/03/17 02:43:35;;;;;;;;;;;;;;;5.27;100.00;96859.31;108551;1280;124953;-87
2024/03/17 02:46:04;;;;;;;;;;;;;;;5.25;100.00;96858.92;108626;1275;22510;-87
2024/03/17 02:48:30;;;;;;;;;;;;;;;5.23;100.00;96860.81;108585;1280;23202;-87
2024/03/17 02:50:57;;;;;;;;;;;;;;;5.24;100.00;96860.60;108489;1270;124937;-87
2024/03/17 02:53:24;;;;;;;;;;;;;;;5.24;100.00;96858.35;108658;1273;23993;-88
2024/03/17 02:55:51;;;;;;;;;;;;;;;5.26;100.00;96855.26;108825;1280;124972;-87
2024/03/17 02:58:17;;;;;;;;;;;;;;;5.25;100.00;96855.99;108728;1273;22519;-85
2024/03/17 03:00:44;;;;;;;;;;;;;;;5.26;100.00;96859.02;108630;1280;23085;-84
2024/03/17 03:03:10;;;;;;;;;;;;;;;5.26;100.00;96854.09;108643;1280;124572;-85
2024/03/17 03:05:38;;;;;;;;;;;;;;;5.26;100.00;96853.55;108686;1280;22457;-85
2024/03/17 03:08:05;;;;;;;;;;;;;;;5.27;100.00;96857.71;108588;1272;124569;-84
2024/03/17 03:10:31;;;;;;;;;;;;;;;5.27;100.00;96859.27;108715;1280;22504;-85
2024/03/17 03:12:57;;;;;;;;;;;;;;;5.25;100.00;96858.05;108756;1280;25401;-84
2024/03/17 03:15:23;;;;;;;;;;;;;;;5.25;100.00;96864.48;108563;1273;124442;-84
2024/03/17 03:17:50;;;;;;;;;;;;;;;5.24;100.00;96865.08;108682;1273;24177;-84
2024/03/17 03:20:17;;;;;;;;;;;;;;;5.26;100.00;96868.48;108522;1262;125007;-85
2024/03/17 03:22:43;;;;;;;;;;;;;;;5.28;100.00;96873.64;108666;1277;22510;-84
2024/03/17 03:25:10;;;;;;;;;;;;;;;5.26;100.00;96871.91;108496;1278;124721;-85
2024/03/17 03:27:37;;;;;;;;;;;;;;;5.22;100.00;96874.51;108607;1278;22554;-85
2024/03/17 03:30:06;;;;;;;;;;;;;;;5.18;100.00;96879.00;108560;1280;22534;-85
2024/03/17 03:32:33;;;;;;;;;;;;;;;5.16;100.00;96882.39;108522;1280;125281;-85
2024/03/17 03:34:59;;;;;;;;;;;;;;;5.13;100.00;96885.63;108697;1275;22443;-85
2024/03/17 03:37:26;;;;;;;;;;;;;;;5.10;100.00;96891.73;108536;1275;125171;-85
2024/03/17 03:39:52;;;;;;;;;;;;;;;5.09;100.00;96894.39;108753;1272;22684;-85
2024/03/17 03:42:19;;;;;;;;;;;;;;;5.06;100.00;96893.45;108677;1260;22514;-85
2024/03/17 03:44:46;;;;;;;;;;;;;;;5.05;100.00;96892.85;108697;1278;124562;-85
2024/03/17 03:47:12;;;;;;;;;;;;;;;5.03;100.00;96897.67;108657;1272;22523;-85
2024/03/17 03:49:39;;;;;;;;;;;;;;;4.99;100.00;96897.65;108638;1272;124685;-84
2024/03/17 03:52:05;;;;;;;;;;;;;;;4.96;100.00;96899.28;108583;1275;22532;-85
2024/03/17 03:54:31;;;;;;;;;;;;;;;4.95;100.00;96904.57;108561;1280;22511;-85
2024/03/17 03:56:57;;;;;;;;;;;;;;;4.95;100.00;96909.52;108572;1275;124600;-85
2024/03/17 03:59:24;;;;;;;;;;;;;;;4.94;100.00;96906.90;108628;1275;24204;-88
2024/03/17 04:01:50;;;;;;;;;;;;;;;4.92;100.00;96910.31;108528;1279;124995;-87
2024/03/17 04:04:17;;;;;;;;;;;;;;;4.88;100.00;96912.17;108710;1280;22528;-87
2024/03/17 04:06:43;;;;;;;;;;;;;;;4.86;100.00;96917.31;108642;1278;24832;-87
2024/03/17 04:09:10;;;;;;;;;;;;;;;4.85;100.00;96919.31;108588;1270;124531;-87
2024/03/17 04:11:36;;;;;;;;;;;;;;;4.83;100.00;96919.29;108622;1281;22568;-87
2024/03/17 04:14:02;;;;;;;;;;;;;;;4.82;100.00;96919.69;108577;1280;124969;-87
2024/03/17 04:16:31;;;;;;;;;;;;;;;4.81;100.00;96920.13;108640;1275;24215;-87
2024/03/17 04:18:57;;;;;;;;;;;;;;;4.80;100.00;96917.30;108581;1279;22519;-87
2024/03/17 04:21:23;;;;;;;;;;;;;;;4.79;100.00;96922.37;108541;1280;124968;-87
2024/03/17 04:23:50;;;;;;;;;;;;;;;4.80;100.00;96924.02;108669;1280;23566;-87
2024/03/17 04:26:16;;;;;;;;;;;;;;;4.79;100.00;96928.27;108542;1278;124781;-86
2024/03/17 04:28:42;;;;;;;;;;;;;;;4.79;100.00;96924.92;108687;1280;22703;-86
2024/03/17 04:31:11;;;;;;;;;;;;;;;4.79;100.00;96930.94;108512;1278;124794;-86
2024/03/17 04:33:37;;;;;;;;;;;;;;;4.71;100.00;96929.23;108659;1280;22619;-87
2024/03/17 04:36:03;;;;;;;;;;;;;;;4.61;100.00;96936.10;108627;1275;22479;-87
2024/03/17 04:38:30;;;;;;;;;;;;;;;4.59;100.00;96944.41;108527;1278;124795;-87
2024/03/17 04:41:04;;;;;;;;;;;;;;;4.60;100.00;96946.04;108643;1278;22517;-87
2024/03/17 04:43:31;;;;;;;;;;;;;;;4.61;100.00;96955.25;108545;1280;124815;-87
2024/03/17 04:46:03;;;;;;;;;;;;;;;4.56;100.00;96957.51;108654;1280;22646;-87
2024/03/17 04:48:30;;;;;;;;;;;;;;;4.52;100.00;96957.52;108686;1280;24324;-87
2024/03/17 04:50:56;;;;;;;;;;;;;;;4.44;100.00;96961.23;108571;1278;124600;-86
2024/03/17 04:53:22;;;;;;;;;;;;;;;4.41;100.00;96965.17;108597;1280;22555;-87
2024/03/17 04:55:57;;;;;;;;;;;;;;;4.38;100.00;96968.67;108501;1280;125041;-87
2024/03/17 04:58:23;;;;;;;;;;;;;;;4.36;100.00;96971.23;108602;1281;25403;-87
2024/03/17 05:00:49;;;;;;;;;;;;;;;4.36;100.00;96967.41;108613;1280;22502;-88
2024/03/17 05:03:16;;;;;;;;;;;;;;;4.34;100.00;96969.70;108522;1280;124629;-89
2024/03/17 05:05:42;;;;;;;;;;;;;;;4.29;100.00;96973.89;108636;1280;22589;-88
2024/03/17 05:08:08;;;;;;;;;;;;;;;4.22;100.00;96972.03;108502;1278;125338;-88
2024/03/17 05:10:35;;;;;;;;;;;;;;;4.20;100.00;96974.08;108634;1274;23082;-88
2024/03/17 05:13:01;;;;;;;;;;;;;;;4.18;100.00;96973.73;108710;1276;22534;-88
2024/03/17 05:15:28;;;;;;;;;;;;;;;4.17;100.00;96975.69;108553;1275;124427;-87
2024/03/17 05:17:55;;;;;;;;;;;;;;;4.14;100.00;96978.31;108656;1278;22468;-87
2024/03/17 05:20:21;;;;;;;;;;;;;;;4.13;100.00;96976.16;108533;1280;124783;-88
2024/03/17 05:22:49;;;;;;;;;;;;;;;4.13;100.00;96979.46;108641;1281;22529;-88
2024/03/17 05:25:16;;;;;;;;;;;;;;;4.16;100.00;96975.09;109874;1277;124852;-89
2024/03/17 05:27:44;;;;;;;;;;;;;;;4.20;100.00;96979.22;109983;1277;23196;-87
2024/03/17 05:30:11;;;;;;;;;;;;;;;4.24;100.00;96979.30;109966;1273;22382;-87
2024/03/17 05:32:38;;;;;;;;;;;;;;;4.27;100.00;96980.02;109946;1280;124618;-88
2024/03/17 05:35:04;;;;;;;;;;;;;;;4.30;100.00;96982.18;110017;1278;22370;-87
2024/03/17 05:37:30;;;;;;;;;;;;;;;4.31;100.00;96985.84;109886;1280;125045;-88
2024/03/17 05:39:57;;;;;;;;;;;;;;;4.29;100.00;96989.48;109989;1262;22396;-87
2024/03/17 05:42:23;;;;;;;;;;;;;;;4.26;100.00;96983.38;110031;1280;22411;-88
2024/03/17 05:44:49;;;;;;;;;;;;;;;4.26;100.00;96986.31;108944;1280;124649;-87
2024/03/17 05:47:17;;;;;;;;;;;;;;;4.27;100.00;96984.85;108673;1269;22534;-87
2024/03/17 05:49:43;;;;;;;;;;;;;;;4.27;100.00;96989.10;108624;1278;125294;-87
2024/03/17 05:52:10;;;;;;;;;;;;;;;4.27;100.00;96991.75;108601;1280;22549;-87
2024/03/17 05:54:37;;;;;;;;;;;;;;;4.24;100.00;96990.59;108659;1275;24362;-86
2024/03/17 05:57:04;;;;;;;;;;;;;;;4.22;100.00;96990.55;108561;1280;124614;-86
2024/03/17 05:59:33;;;;;;;;;;;;;;;4.20;100.00;96988.80;108705;1276;22516;-86
2024/03/17 06:01:59;;;;;;;;;;;;;;;4.17;100.00;96995.27;108610;1280;125102;-87
2024/03/17 06:04:25;;;;;;;;;;;;;;;4.10;100.00;96995.84;108588;1280;22509;-84
2024/03/17 06:06:52;;;;;;;;;;;;;;;4.04;100.00;97000.09;108670;1280;22502;-84
2024/03/17 06:09:19;;;;;;;;;;;;;;;3.94;100.00;96999.03;108601;1275;124585;-84
2024/03/17 06:11:46;;;;;;;;;;;;;;;3.84;100.00;97001.02;108610;1280;22551;-84
2024/03/17 06:14:12;;;;;;;;;;;;;;;3.81;100.00;97000.32;108555;1278;124765;-84
2024/03/17 06:16:39;;;;;;;;;;;;;;;3.82;100.00;97000.02;108685;1280;22509;-84
2024/03/17 06:19:07;;;;;;;;;;;;;;;3.83;100.00;96998.19;108727;1275;24182;-84
2024/03/17 06:21:33;;;;;;;;;;;;;;;3.81;100.00;96999.72;108715;1262;22507;-84
2024/03/17 06:23:59;;;;;;;;;;;;;;;3.84;100.00;97002.93;108692;1262;22477;-84
2024/03/17 06:26:26;;;;;;;;;;;;;;;3.91;100.00;97010.24;108578;1279;124599;-84
2024/03/17 06:28:53;;;;;;;;;;;;;;;3.96;100.00;97012.30;108551;1281;22520;-84
2024/03/17 06:31:19;;;;;;;;;;;;;;;3.97;100.00;97012.52;108538;1280;124842;-84
2024/03/17 06:33:46;;;;;;;;;;;;;;;3.97;100.00;97022.46;108719;1280;22528;-84
2024/03/17 06:36:13;;;;;;;;;;;;;;;3.95;100.00;97029.52;108691;1280;22542;-86
2024/03/17 06:38:40;;;;;;;;;;;;;;;3.89;100.00;97031.66;108661;1276;124549;-86
2024/03/17 06:41:07;;;;;;;;;;;;;;;3.81;100.00;97038.14;108702;1280;22512;-86
2024/03/17 06:43:34;;;;;;;;;;;;;;;3.78;100.00;97040.65;108670;1280;124895;-86
2024/03/17 06:46:00;;;;;;;;;;;;;;;3.74;100.00;97039.25;108727;1280;22451;-86
2024/03/17 06:48:27;;;;;;;;;;;;;;;3.72;100.00;97045.91;108695;1279;22503;-86
2024/03/17 06:50:56;;;;;;;;;;;;;;;3.74;100.00;97043.21;108708;1275;124757;-86
2024/03/17 06:53:26;;;;;;;;;;;;;;;3.70;100.00;97038.17;108679;1280;22472;-86
2024/03/17 06:55:53;;;;;;;;;;;;;;;3.68;100.00;97033.58;108680;1278;124674;-86
2024/03/17 06:58:22;;;;;;;;;;;;;;;3.68;100.00;97030.35;109012;1273;22534;-87
2024/03/17 07:01:01;;;;;;;;;;;;;;;3.69;100.00;97026.11;108578;1275;22510;-86
2024/03/17 07:03:29;;;;;;;;;;;;;;;3.75;100.00;97022.52;108514;1275;124973;-86
2024/03/17 07:05:56;;;;;;;;;;;;;;;3.81;100.00;97026.19;108648;1281;22548;-86
2024/03/17 07:08:22;;;;;;;;;;;;;;;3.81;100.00;97034.09;108488;1280;124809;-86
2024/03/17 07:10:56;;;;;;;;;;;;;;;3.75;100.00;97037.64;108631;1278;22572;-86
2024/03/17 07:13:22;;;;;;;;;;;;;;;3.70;100.00;97033.75;108459;1280;124729;-87
2024/03/17 07:15:49;;;;;;;;;;;;;;;3.68;100.00;97033.58;108567;1281;24760;-86
2024/03/17 07:18:16;;;;;;;;;;;;;;;3.69;100.00;97033.66;108593;1278;22791;-86
2024/03/17 07:20:42;;;;;;;;;;;;;;;3.67;100.00;97033.09;108505;1280;124803;-86
2024/03/17 07:23:08;;;;;;;;;;;;;;;3.69;100.00;97032.64;108595;1278;23688;-86
2024/03/17 07:25:36;;;;;;;;;;;;;;;3.74;100.00;97032.71;108539;1281;125507;-86
2024/03/17 07:28:03;;;;;;;;;;;;;;;3.79;100.00;97032.70;108614;1278;24829;-86
2024/03/17 07:30:29;;;;;;;;;;;;;;;3.80;99.83;97035.78;108708;1278;24280;-86
2024/03/17 07:32:56;;;;;;;;;;;;;;;3.79;98.01;97036.05;108579;1280;124620;-86
2024/03/17 07:35:22;;;;;;;;;;;;;;;3.83;98.18;97033.32;108599;1278;22525;-87
2024/03/17 07:37:48;;;;;;;;;;;;;;;3.89;98.38;97032.20;108508;1280;125012;-87
2024/03/17 07:40:15;;;;;;;;;;;;;;;3.93;98.29;97033.45;108708;1265;22897;-87
2024/03/17 07:42:42;;;;;;;;;;;;;;;3.97;99.46;97035.51;108678;1280;23284;-87
2024/03/17 07:45:09;;;;;;;;;;;;;;;4.05;99.64;97040.86;108528;1280;124591;-87
2024/03/17 07:47:38;;;;;;;;;;;;;;;4.12;99.36;97042.84;108654;1280;25385;-87
2024/03/17 07:50:05;;;;;;;;;;;;;;;4.18;98.73;97042.33;108607;1278;124482;-87
2024/03/17 07:52:31;;;;;;;;;;;;;;;4.21;96.42;97040.66;108699;1280;22599;-87
2024/03/17 07:54:58;;;;;;;;;;;;;;;4.23;96.38;97029.56;108619;1278;24187;-87
2024/03/17 07:57:24;;;;;;;;;;;;;;;4.27;97.13;97018.27;108578;1280;124314;-87
2024/03/17 07:59:54;;;;;;;;;;;;;;;4.32;97.02;97013.25;108575;1280;22695;-87
2024/03/17 08:02:20;;;;;;;;;;;;;;;4.34;95.64;97015.61;108617;1274;124822;-87
2024/03/17 08:04:47;;;;;;;;;;;;;;;4.34;96.04;97020.80;108616;1280;22504;-88
2024/03/17 08:07:13;;;;;;;;;;;;;;;4.35;96.66;97018.43;108519;1279;124682;-88
2024/03/17 08:09:39;;;;;;;;;;;;;;;4.38;93.24;97022.48;108735;1280;22472;-87
2024/03/17 08:12:06;;;;;;;;;;;;;;;4.39;91.64;97016.04;108651;1280;23631;-87
2024/03/17 08:14:32;;;;;;;;;;;;;;;4.41;93.05;97018.67;108530;1281;124987;-87
2024/03/17 08:16:58;;;;;;;;;;;;;;;4.44;93.88;97022.15;108686;1278;22865;-87
2024/03/17 08:19:25;;;;;;;;;;;;;;;4.48;91.79;97025.80;108508;1280;124622;-88
2024/03/17 08:21:51;;;;;;;;;;;;;;;4.46;91.58;97032.83;108767;1280;22511;-87
2024/03/17 08:24:18;;;;;;;;;;;;;;;4.44;90.96;97036.42;108604;1280;25197;-88
2024/03/17 08:26:45;;;;;;;;;;;;;;;4.47;91.81;97033.89;108548;1273;125103;-87
2024/03/17 08:29:11;;;;;;;;;;;;;;;4.53;90.38;97033.07;108700;1280;22526;-87
2024/03/17 08:31:38;;;;;;;;;;;;;;;4.55;91.55;97027.60;108504;1280;124687;-87
2024/03/17 08:34:04;;;;;;;;;;;;;;;4.63;93.40;97026.73;108586;1280;24220;-87
2024/03/17 08:36:31;;;;;;;;;;;;;;;4.72;92.52;97024.60;108622;1280;24035;-87
2024/03/17 08:38:58;;;;;;;;;;;;;;;4.79;92.41;97028.50;108490;1268;124377;-85
2024/03/17 08:41:24;;;;;;;;;;;;;;;4.86;92.71;97026.83;108531;1271;22528;-85
2024/03/17 08:43:51;;;;;;;;;;;;;;;4.95;92.13;97032.98;108488;1280;125072;-85
2024/03/17 08:46:18;;;;;;;;;;;;;;;5.00;91.20;97027.56;108653;1280;22523;-85
2024/03/17 08:48:44;;;;;;;;;;;;;;;5.03;90.61;97029.70;108607;1278;22504;-85
2024/03/17 08:51:10;;;;;;;;;;;;;;;5.03;88.79;97033.91;108657;1272;124511;-85
2024/03/17 08:53:41;;;;;;;;;;;;;;;5.05;89.31;97034.68;108700;1269;22539;-85
2024/03/17 08:56:08;;;;;;;;;;;;;;;5.14;89.77;97033.40;108632;1280;124805;-85
2024/03/17 08:58:35;;;;;;;;;;;;;;;5.21;88.21;97033.95;108692;1278;22496;-85
2024/03/17 09:01:06;;;;;;;;;;;;;;;5.20;84.88;97027.18;108601;1280;22485;-85
2024/03/17 09:03:33;;;;;;;;;;;;;;;5.16;85.13;97025.45;108582;1281;22560;-85
2024/03/17 09:06:00;;;;;;;;;;;;;;;5.11;84.86;97020.04;108586;1280;22614;-85
2024/03/17 09:08:28;;;;;;;;;;;;;;;5.13;82.61;97022.10;108454;1280;124402;-85
2024/03/17 09:10:54;;;;;;;;;;;;;;;5.13;84.30;97017.49;108693;1280;22539;-85
2024/03/17 09:13:23;;;;;;;;;;;;;;;5.19;86.26;97017.99;108495;1281;124674;-86
2024/03/17 09:15:52;;;;;;;;;;;;;;;5.28;84.03;97015.33;108577;1280;22550;-85
2024/03/17 09:18:18;;;;;;;;;;;;;;;5.29;82.25;97016.09;108594;1279;22507;-85
2024/03/17 09:20:45;;;;;;;;;;;;;;;5.22;81.43;97016.86;108550;1279;124416;-85
2024/03/17 09:23:12;;;;;;;;;;;;;;;5.13;81.84;97007.53;108608;1280;22660;-85
2024/03/17 09:25:39;;;;;;;;;;;;;;;5.10;81.74;97009.46;108500;1280;125449;-85
2024/03/17 09:28:05;;;;;;;;;;;;;;;5.17;83.38;97006.70;108596;1279;25471;-85
2024/03/17 09:30:32;;;;;;;;;;;;;;;5.23;82.77;97005.97;108721;1280;22562;-84
2024/03/17 09:32:59;;;;;;;;;;;;;;;5.30;82.95;97003.96;108546;1280;124422;-85
2024/03/17 09:35:25;;;;;;;;;;;;;;;5.33;80.19;97007.14;108596;1280;22532;-85
2024/03/17 09:37:52;;;;;;;;;;;;;;;5.31;80.03;97007.16;108510;1277;124689;-85
2024/03/17 09:40:18;;;;;;;;;;;;;;;5.36;81.71;97002.62;108534;1277;194007;-85
2024/03/17 09:42:45;;;;;;;;;;;;;;;5.42;81.26;97005.88;108551;1280;25393;-85
2024/03/17 09:45:15;;;;;;;;;;;;;;;5.43;82.49;97007.84;108568;1281;124452;-85
2024/03/17 09:47:41;;;;;;;;;;;;;;;5.45;83.04;96999.77;108719;1280;22533;-85
2024/03/17 09:50:13;;;;;;;;;;;;;;;5.50;82.49;96999.98;108527;1281;125025;-85
2024/03/17 09:52:39;;;;;;;;;;;;;;;5.58;82.01;96994.66;109976;1277;22569;-85
2024/03/17 09:55:09;;;;;;;;;;;;;;;5.59;80.32;97003.20;110019;1281;22425;-83
2024/03/17 09:57:39;;;;;;;;;;;;;;;5.58;79.69;96995.72;109975;1273;22461;-83
2024/03/17 10:00:12;;;;;;;;;;;;;;;5.61;76.74;96991.27;110017;1279;22381;-83
2024/03/17 10:02:45;;;;;;;;;;;;;;;5.74;81.31;96986.86;109867;1277;124405;-83
2024/03/17 10:05:21;;;;;;;;;;;;;;;5.92;81.35;96984.27;109989;1278;22869;-83
2024/03/17 10:07:49;;;;;;;;;;;;;;;6.01;79.70;96979.46;109906;1281;125220;-83
2024/03/17 10:10:18;;;;;;;;;;;;;;;5.99;77.84;96982.67;110052;1281;22390;-83
2024/03/17 10:12:48;;;;;;;;;;;;;;;6.05;77.81;96988.61;110011;1281;22467;-86
2024/03/17 10:15:15;;;;;;;;;;;;;;;6.13;77.61;96980.96;109979;1280;125064;-87
2024/03/17 10:17:41;;;;;;;;;;;;;;;6.24;78.99;96979.41;110150;1279;22378;-87
2024/03/17 10:20:12;;;;;;;;;;;;;;;6.30;74.38;96987.86;109316;1275;124623;-86
2024/03/17 10:22:38;;;;;;;;;;;;;;;6.26;72.72;96985.58;108646;1278;24939;-86
2024/03/17 10:25:05;;;;;;;;;;;;;;;6.21;73.65;96986.94;108596;1279;22565;-86
2024/03/17 10:27:32;;;;;;;;;;;;;;;6.19;75.18;96988.01;108490;1273;123613;-86
2024/03/17 10:29:58;;;;;;;;;;;;;;;6.22;73.11;96983.60;108634;1280;22639;-86
2024/03/17 10:32:25;;;;;;;;;;;;;;;6.21;73.60;96979.55;108564;1279;123896;-86
2024/03/17 10:34:52;;;;;;;;;;;;;;;6.18;71.98;96980.98;108644;1280;23291;-88
2024/03/17 10:37:27;;;;;;;;;;;;;;;6.14;72.76;96975.05;108625;1280;123874;-88
2024/03/17 10:39:55;;;;;;;;;;;;;;;6.18;73.91;96969.50;108665;1280;23147;-88
2024/03/17 10:42:25;;;;;;;;;;;;;;;6.35;76.14;96964.83;108574;1278;22548;-88
2024/03/17 10:44:52;;;;;;;;;;;;;;;6.54;75.06;96967.83;108563;1274;124354;-88
2024/03/17 10:47:24;;;;;;;;;;;;;;;6.61;75.24;96968.45;108676;1279;22533;-88
2024/03/17 10:49:51;;;;;;;;;;;;;;;6.71;76.51;96973.76;108526;1281;124098;-88
2024/03/17 10:52:18;;;;;;;;;;;;;;;6.76;74.28;96970.65;108563;1281;22460;-88
2024/03/17 10:54:48;;;;;;;;;;;;;;;6.77;73.02;96975.89;108655;1279;22460;-88
2024/03/17 10:57:33;;;;;;;;;;;;;;;6.69;71.24;96972.02;108638;1280;123706;-88
2024/03/17 11:00:02;;;;;;;;;;;;;;;6.56;72.30;96963.23;108711;1280;25900;-88
2024/03/17 11:02:32;;;;;;;;;;;;;;;6.52;72.82;96961.20;108618;1280;123692;-88
2024/03/17 11:05:02;;;;;;;;;;;;;;;6.60;75.24;96959.02;108685;1280;22759;-88
2024/03/17 11:07:31;;;;;;;;;;;;;;;6.70;74.32;96956.22;108554;1280;123965;-88
2024/03/17 11:09:57;;;;;;;;;;;;;;;6.68;73.32;96956.58;108628;1280;22510;-88
2024/03/17 11:12:44;;;;;;;;;;;;;;;6.66;74.09;96948.54;108630;1280;22512;-88
2024/03/17 11:15:19;;;;;;;;;;;;;;;6.70;74.56;96952.83;110023;1273;124078;-86
2024/03/17 11:17:45;;;;;;;;;;;;;;;6.74;74.84;96950.70;110044;1279;22439;-86
2024/03/17 11:20:15;;;;;;;;;;;;;;;6.77;74.10;96948.73;110010;1273;123643;-86
2024/03/17 11:22:42;;;;;;;;;;;;;;;6.75;74.09;96952.14;110081;1270;22431;-86
2024/03/17 11:25:27;;;;;;;;;;;;;;;6.74;74.09;96958.15;110111;1276;22467;-86
2024/03/17 11:27:53;;;;;;;;;;;;;;;6.69;71.65;96954.45;110019;1273;22352;-86
2024/03/17 11:30:38;;;;;;;;;;;;;;;6.61;72.06;96957.06;109954;1272;23232;-86
2024/03/17 11:33:25;;;;;;;;;;;;;;;6.54;70.85;96952.21;109944;1276;124305;-86
2024/03/17 11:35:51;;;;;;;;;;;;;;;6.54;72.08;96948.77;110058;1277;22369;-87
2024/03/17 11:38:36;;;;;;;;;;;;;;;6.69;72.75;96946.92;109926;1280;123912;-87
2024/03/17 11:41:22;;;;;;;;;;;;;;;6.83;71.95;96942.73;110048;1273;22373;-87
2024/03/17 11:43:48;;;;;;;;;;;;;;;6.89;71.99;96943.59;109960;1258;123992;-83
2024/03/17 11:46:14;;;;;;;;;;;;;;;6.89;70.16;96939.48;108746;1274;22474;-82
2024/03/17 11:48:40;;;;;;;;;;;;;;;6.86;69.07;96939.42;108642;1274;22505;-82
2024/03/17 11:51:07;;;;;;;;;;;;;;;6.83;70.30;96931.95;108521;1280;123788;-85
2024/03/17 11:53:34;;;;;;;;;;;;;;;6.85;71.00;96932.63;108616;1273;22536;-84
2024/03/17 11:56:05;;;;;;;;;;;;;;;6.85;70.91;96932.98;108543;1279;123684;-84
2024/03/17 11:58:33;;;;;;;;;;;;;;;6.79;69.51;96931.98;108635;1276;22556;-85
2024/03/17 12:00:59;;;;;;;;;;;;;;;6.71;71.13;96924.49;108642;1280;22561;-85
2024/03/17 12:03:26;;;;;;;;;;;;;;;6.70;71.69;96926.32;108537;1273;124028;-84
2024/03/17 12:05:52;;;;;;;;;;;;;;;6.74;71.83;96917.27;108686;1273;22529;-84
2024/03/17 12:08:20;;;;;;;;;;;;;;;6.73;69.77;96914.77;108637;1273;123715;-84
2024/03/17 12:10:47;;;;;;;;;;;;;;;6.75;71.10;96907.06;108667;1273;22526;-85
2024/03/17 12:13:14;;;;;;;;;;;;;;;6.85;71.53;96909.88;108667;1280;23826;-85
2024/03/17 12:15:40;;;;;;;;;;;;;;;6.96;69.27;96915.19;108523;1281;123983;-85
2024/03/17 12:18:19;;;;;;;;;;;;;;;6.96;67.83;96914.37;108687;1280;22469;-85
2024/03/17 12:20:48;;;;;;;;;;;;;;;6.96;65.77;96912.12;108520;1263;124122;-84
2024/03/17 12:23:20;;;;;;;;;;;;;;;6.94;66.38;96909.90;108671;1274;22540;-84
2024/03/17 12:25:47;;;;;;;;;;;;;;;6.91;66.28;96905.66;108486;1281;124531;-85
2024/03/17 12:28:15;;;;;;;;;;;;;;;6.89;66.15;96902.24;108590;1280;22511;-84
2024/03/17 12:30:41;;;;;;;;;;;;;;;6.93;67.22;96900.27;108648;1271;22560;-84
2024/03/17 12:33:08;;;;;;;;;;;;;;;7.03;67.74;96895.25;108530;1267;123794;-85
2024/03/17 12:35:35;;;;;;;;;;;;;;;7.14;67.01;96897.80;108600;1281;22538;-85
2024/03/17 12:38:01;;;;;;;;;;;;;;;7.22;66.74;96895.80;108556;1273;124427;-85
2024/03/17 12:40:29;;;;;;;;;;;;;;;7.27;66.86;96884.67;108638;1280;23791;-84
2024/03/17 12:42:55;;;;;;;;;;;;;;;7.33;66.55;96880.59;108669;1280;22557;-83